Time;durP1;ratioP1;P1;durP2;ratioP2;P2;SDS_P1;SDS_P2;PMS_P1;PMS_P2;Temp;Humidity;BMP_temperature;BMP_pressure;BME280_temperature;BME280_humidity;BME280_pressure;Samples;Min_cycle;Max_cycle;Signal;HPM_P1;HPM_P2
2021/10/30 00:00:00;;;;;;;20.73;15.77;;;;;;;9.29;100.00;101445.16;5011965;28;19914;-70
2021/10/30 00:02:26;;;;;;;20.75;15.45;;;;;;;9.37;100.00;101470.56;5012366;28;20026;-68
2021/10/30 00:04:51;;;;;;;21.48;16.27;;;;;;;9.34;100.00;101459.19;5012155;28;20411;-68
2021/10/30 00:07:17;;;;;;;21.42;15.95;;;;;;;9.30;100.00;101446.94;5009804;28;20396;-65
2021/10/30 00:09:44;;;;;;;22.00;15.77;;;;;;;8.86;100.00;101359.44;5009809;28;20092;-69
2021/10/30 00:12:10;;;;;;;22.17;14.80;;;;;;;9.45;100.00;101464.97;5012025;28;20044;-70
2021/10/30 00:14:37;;;;;;;21.98;16.60;;;;;;;8.98;100.00;101376.38;5011503;28;20030;-70
2021/10/30 00:17:02;;;;;;;23.33;15.60;;;;;;;9.35;100.00;101432.63;5011888;28;20484;-67
2021/10/30 00:19:28;;;;;;;24.20;16.98;;;;;;;9.50;100.00;101440.34;5012247;28;20033;-69
2021/10/30 00:21:53;;;;;;;23.90;17.17;;;;;;;9.51;100.00;101448.16;5011920;28;20045;-70
2021/10/30 00:24:19;;;;;;;24.67;17.00;;;;;;;9.52;100.00;101447.34;5010020;28;20038;-65
2021/10/30 00:26:45;;;;;;;26.58;16.08;;;;;;;9.43;100.00;101428.78;5011612;28;20491;-69
2021/10/30 00:29:10;;;;;;;23.52;16.27;;;;;;;8.98;99.53;101337.75;5011659;28;20022;-69
2021/10/30 00:31:36;;;;;;;18.90;15.35;;;;;;;9.53;100.00;101438.84;5011349;28;20026;-69
2021/10/30 00:34:02;;;;;;;23.77;16.60;;;;;;;8.90;99.94;101327.03;5012219;28;20033;-67
2021/10/30 00:36:28;;;;;;;24.35;16.45;;;;;;;9.51;100.00;101439.53;5011713;28;20101;-68
2021/10/30 00:38:53;;;;;;;23.25;17.52;;;;;;;9.50;100.00;101435.19;5011617;28;20034;-69
2021/10/30 00:41:19;;;;;;;26.08;16.63;;;;;;;8.99;100.00;101343.00;5011290;28;20021;-69
2021/10/30 00:43:45;;;;;;;23.88;16.83;;;;;;;9.52;100.00;101436.13;5011198;28;20026;-68
2021/10/30 00:46:10;;;;;;;25.88;16.67;;;;;;;9.45;100.00;101427.19;5010942;28;20029;-66
2021/10/30 00:48:36;;;;;;;22.35;15.80;;;;;;;9.40;100.00;101428.63;5011437;28;20052;-67
2021/10/30 00:51:03;;;;;;;23.52;16.58;;;;;;;9.29;100.00;101437.44;5011498;28;20105;-66
2021/10/30 00:53:31;;;;;;;19.90;15.00;;;;;;;8.89;100.00;101339.00;5010340;28;20049;-69
2021/10/30 00:56:01;;;;;;;22.77;16.83;;;;;;;9.41;100.00;101432.97;5009190;28;20101;-67
2021/10/30 00:58:29;;;;;;;22.73;16.38;;;;;;;9.44;100.00;101438.28;5010779;28;20042;-67
2021/10/30 01:00:54;;;;;;;21.52;15.65;;;;;;;8.90;100.00;101340.78;5010958;28;20034;-67
2021/10/30 01:03:20;;;;;;;24.85;15.80;;;;;;;8.90;100.00;101371.69;5002875;28;20022;-67
2021/10/30 01:05:46;;;;;;;22.23;16.02;;;;;;;9.10;100.00;101433.78;5026653;28;20540;-68
2021/10/30 01:08:13;;;;;;;22.90;15.25;;;;;;;8.96;100.00;101409.78;5009253;28;20026;-66
2021/10/30 01:10:39;;;;;;;25.85;16.30;;;;;;;9.10;100.00;101431.19;4992610;28;20622;-65
2021/10/30 01:13:04;;;;;;;25.95;16.17;;;;;;;9.07;100.00;101408.72;4992440;28;20045;-66
2021/10/30 01:15:30;;;;;;;21.50;15.80;;;;;;;9.20;100.00;101423.19;4991409;28;20030;-70
2021/10/30 01:17:55;;;;;;;22.70;15.95;;;;;;;9.25;100.00;101420.03;4993757;28;20088;-64
2021/10/30 01:20:26;;;;;;;19.70;14.55;;;;;;;9.13;100.00;101400.44;4995410;28;20026;-66
2021/10/30 01:22:59;;;;;;;19.67;14.90;;;;;;;9.31;100.00;101430.66;4992880;28;20028;-67
2021/10/30 01:25:25;;;;;;;24.23;15.70;;;;;;;9.23;100.00;101422.47;4993693;28;20405;-64
2021/10/30 01:27:52;;;;;;;20.60;15.13;;;;;;;9.25;100.00;101430.31;4992274;28;20026;-65
2021/10/30 01:30:20;;;;;;;21.10;15.40;;;;;;;9.16;100.00;101435.81;4992218;28;20516;-67
2021/10/30 01:33:02;;;;;;;22.88;15.15;;;;;;;9.26;100.00;101432.97;4992746;28;20030;-66
2021/10/30 01:35:40;;;;;;;18.33;14.32;;;;;;;9.27;100.00;101427.03;4992287;28;20045;-67
2021/10/30 01:38:07;;;;;;;24.88;15.23;;;;;;;9.27;100.00;101428.72;4991939;28;20026;-66
2021/10/30 01:40:47;;;;;;;18.95;14.10;;;;;;;9.21;100.00;101416.38;4991631;28;20026;-66
2021/10/30 01:43:13;;;;;;;20.30;15.30;;;;;;;9.24;100.00;101419.09;4993829;28;20030;-66
2021/10/30 01:45:41;;;;;;;21.90;14.77;;;;;;;9.18;100.00;101429.97;4993477;28;20417;-67
2021/10/30 01:48:06;;;;;;;21.48;16.13;;;;;;;9.08;100.00;101419.91;4994936;28;20077;-67
2021/10/30 01:50:32;;;;;;;18.65;14.93;;;;;;;9.18;100.00;101426.50;4992272;28;20505;-66
2021/10/30 01:52:59;;;;;;;23.27;15.35;;;;;;;9.13;100.00;101417.59;4991919;28;20033;-65
2021/10/30 01:55:26;;;;;;;18.98;13.82;;;;;;;9.10;100.00;101428.63;4991608;28;20109;-67
2021/10/30 01:57:51;;;;;;;18.67;13.07;;;;;;;8.37;100.00;101315.31;4992965;28;20081;-66
2021/10/30 02:00:17;;;;;;;19.83;13.50;;;;;;;9.13;100.00;101445.94;4997401;28;20469;-67
2021/10/30 02:02:42;;;;;;;19.33;14.18;;;;;;;8.66;100.00;101355.69;4996696;28;20029;-67
2021/10/30 02:05:10;;;;;;;19.48;13.38;;;;;;;9.17;99.74;101432.44;4998854;28;20065;-67
2021/10/30 02:07:36;;;;;;;17.58;13.60;;;;;;;9.13;100.00;101433.06;4998175;28;20539;-66
2021/10/30 02:10:03;;;;;;;18.73;13.60;;;;;;;9.13;99.77;101431.38;5006934;28;20034;-66
2021/10/30 02:12:29;;;;;;;18.48;13.75;;;;;;;9.16;99.35;101431.56;5003203;28;20029;-66
2021/10/30 02:14:54;;;;;;;19.88;14.27;;;;;;;9.04;99.51;101405.97;5014697;28;20030;-64
2021/10/30 02:17:20;;;;;;;20.60;13.57;;;;;;;9.14;99.61;101419.38;5014463;28;20025;-69
2021/10/30 02:19:46;;;;;;;21.20;13.65;;;;;;;9.14;99.81;101432.28;5014475;28;20030;-65
2021/10/30 02:22:11;;;;;;;18.55;13.63;;;;;;;9.12;99.51;101403.84;5014522;28;20507;-63
2021/10/30 02:24:37;;;;;;;18.98;13.52;;;;;;;8.68;99.06;101345.47;5014589;28;20037;-65
2021/10/30 02:27:02;;;;;;;16.65;12.70;;;;;;;9.19;99.08;101430.84;5014423;28;20026;-65
2021/10/30 02:29:28;;;;;;;20.35;13.85;;;;;;;9.20;98.81;101428.34;5012367;28;20038;-66
2021/10/30 02:31:54;;;;;;;15.82;11.82;;;;;;;9.18;98.87;101432.53;5014200;28;20018;-65
2021/10/30 02:34:19;;;;;;;15.98;12.63;;;;;;;9.21;98.52;101439.56;5014076;28;20559;-65
2021/10/30 02:36:45;;;;;;;14.88;11.55;;;;;;;9.24;97.97;101419.09;5014717;28;20026;-65
2021/10/30 02:39:11;;;;;;;16.77;12.18;;;;;;;9.52;97.39;101431.91;5014398;28;20032;-64
2021/10/30 02:41:38;;;;;;;17.35;12.85;;;;;;;9.65;96.55;101435.16;5014354;28;20030;-69
2021/10/30 02:44:03;;;;;;;16.65;12.27;;;;;;;9.73;95.64;101449.34;5014054;28;20412;-65
2021/10/30 02:46:29;;;;;;;18.15;12.07;;;;;;;9.65;95.10;101422.28;5014071;28;20026;-65
2021/10/30 02:48:55;;;;;;;17.45;12.10;;;;;;;9.61;95.84;101441.84;5029077;28;20409;-65
2021/10/30 02:51:20;;;;;;;16.63;11.73;;;;;;;9.44;96.14;101438.28;5014125;28;20160;-65
2021/10/30 02:53:46;;;;;;;16.42;12.07;;;;;;;8.85;96.50;101347.34;5013754;28;20454;-64
2021/10/30 02:56:11;;;;;;;17.30;11.30;;;;;;;9.20;96.58;101410.31;5013891;28;20404;-65
2021/10/30 02:58:37;;;;;;;14.48;11.57;;;;;;;8.80;96.59;101338.47;5013987;28;20109;-67
2021/10/30 03:01:03;;;;;;;16.83;11.65;;;;;;;9.44;96.62;101438.28;5013670;28;20068;-66
2021/10/30 03:03:28;;;;;;;15.43;11.88;;;;;;;9.39;96.56;101440.63;5013939;28;20465;-70
2021/10/30 03:05:53;;;;;;;17.10;11.68;;;;;;;9.28;97.34;101433.94;5013676;28;20030;-64
2021/10/30 03:08:19;;;;;;;14.35;10.93;;;;;;;9.22;97.17;101421.59;5013228;28;20026;-64
2021/10/30 03:10:44;;;;;;;16.42;11.20;;;;;;;9.34;97.11;101438.56;5014147;28;20030;-63
2021/10/30 03:13:10;;;;;;;16.15;11.85;;;;;;;9.47;96.40;101441.06;5013946;28;20026;-66
2021/10/30 03:15:36;;;;;;;18.77;11.60;;;;;;;9.50;95.93;101430.91;5013723;28;20049;-66
2021/10/30 03:18:01;;;;;;;17.58;11.27;;;;;;;9.37;97.09;101436.16;5013443;28;20061;-66
2021/10/30 03:20:27;;;;;;;15.10;10.98;;;;;;;9.32;97.55;101437.59;5013682;28;20024;-66
2021/10/30 03:22:52;;;;;;;22.67;12.02;;;;;;;9.14;98.15;101438.28;5014018;28;20018;-65
2021/10/30 03:28:05;;;;;;;16.35;11.85;;;;;;;9.03;99.05;101432.53;5026925;22;20433;-66
2021/10/30 03:30:31;;;;;;;19.95;12.57;;;;;;;8.41;99.05;101331.03;4994378;28;20032;-67
2021/10/30 03:32:57;;;;;;;17.20;12.27;;;;;;;8.95;98.77;101430.28;4992725;28;20030;-66
2021/10/30 03:35:22;;;;;;;14.93;11.48;;;;;;;8.79;98.94;101393.34;4994068;28;20054;-64
2021/10/30 03:37:48;;;;;;;16.35;12.18;;;;;;;9.00;98.43;101434.03;4993993;28;20050;-66
2021/10/30 03:40:13;;;;;;;16.63;12.10;;;;;;;9.10;98.08;101454.38;4993783;28;20508;-66
2021/10/30 03:42:39;;;;;;;16.25;12.45;;;;;;;9.01;98.05;101431.56;4994150;28;20432;-65
2021/10/30 03:45:06;;;;;;;19.55;11.98;;;;;;;9.27;97.91;101442.50;4992779;28;20034;-67
2021/10/30 03:47:32;;;;;;;17.52;12.27;;;;;;;9.30;96.86;101418.59;4975629;28;20042;-66
2021/10/30 03:49:58;;;;;;;18.77;11.82;;;;;;;9.43;96.43;101433.94;4991820;28;20511;-66
2021/10/30 03:52:24;;;;;;;15.55;11.85;;;;;;;9.44;96.16;101438.28;4975627;28;20049;-66
2021/10/30 03:54:50;;;;;;;35.70;21.33;;;;;;;9.34;96.49;101431.72;4993899;28;20030;-67
2021/10/30 03:57:15;;;;;;;18.42;13.13;;;;;;;9.05;96.69;101418.03;4994013;28;20072;-66
2021/10/30 03:59:41;;;;;;;22.17;14.00;;;;;;;8.99;97.72;101437.41;4992592;28;20026;-66
2021/10/30 04:02:07;;;;;;;20.08;12.80;;;;;;;8.99;97.74;101443.44;4992961;28;20400;-66
2021/10/30 04:04:33;;;;;;;17.85;13.38;;;;;;;9.05;97.54;101437.78;4994003;28;20041;-67
2021/10/30 04:06:59;;;;;;;20.38;13.00;;;;;;;8.92;97.31;101412.09;4994032;28;20031;-67
2021/10/30 04:09:25;;;;;;;19.90;12.57;;;;;;;9.28;96.95;101448.53;4993664;28;20041;-67
2021/10/30 04:11:51;;;;;;;18.52;12.40;;;;;;;9.16;96.21;101410.94;4993800;28;20475;-66
2021/10/30 04:14:17;;;;;;;20.88;12.48;;;;;;;8.14;95.47;101214.53;4992290;28;20428;-67
2021/10/30 04:16:43;;;;;;;14.73;11.93;;;;;;;9.50;95.41;101440.34;4993836;28;20034;-67
2021/10/30 04:19:10;;;;;;;16.98;12.63;;;;;;;9.58;94.96;101441.66;4993522;28;20412;-67
2021/10/30 04:21:35;;;;;;;16.15;12.40;;;;;;;9.62;94.79;101441.03;4992999;28;20095;-67
2021/10/30 04:24:01;;;;;;;18.70;11.77;;;;;;;9.70;94.24;101449.19;4993657;28;20093;-67
2021/10/30 04:26:27;;;;;;;22.00;15.73;;;;;;;9.71;94.11;101448.41;4991358;28;20046;-66
2021/10/30 04:28:54;;;;;;;19.88;14.45;;;;;;;9.76;94.03;101449.53;4993691;28;20528;-65
2021/10/30 04:31:24;;;;;;;19.42;14.73;;;;;;;9.80;93.67;101443.75;4993301;28;20036;-67
2021/10/30 04:33:55;;;;;;;20.83;14.40;;;;;;;9.80;93.53;101464.38;4993427;28;20026;-67
2021/10/30 04:36:24;;;;;;;18.30;13.20;;;;;;;9.71;93.95;101458.72;4993342;28;20069;-66
2021/10/30 04:38:49;;;;;;;18.45;12.63;;;;;;;9.61;94.14;101447.00;4993274;28;20456;-66
2021/10/30 04:41:15;;;;;;;16.65;12.90;;;;;;;9.73;94.13;101453.63;4993024;28;20031;-65
2021/10/30 04:43:41;;;;;;;14.73;11.73;;;;;;;9.78;93.65;101453.09;4991677;28;20089;-65
2021/10/30 04:46:08;;;;;;;15.05;11.63;;;;;;;9.81;93.60;101460.13;4993052;28;20038;-65
2021/10/30 04:48:34;;;;;;;16.65;11.50;;;;;;;9.63;94.31;101447.97;4991652;28;20037;-66
2021/10/30 04:51:00;;;;;;;14.00;11.00;;;;;;;9.71;94.40;101463.88;4992893;28;20034;-66
2021/10/30 04:53:25;;;;;;;14.38;11.57;;;;;;;9.70;94.62;101454.34;4992703;28;20053;-66
2021/10/30 04:55:51;;;;;;;19.65;12.05;;;;;;;9.70;94.71;101455.22;4992720;28;20113;-67
2021/10/30 04:58:16;;;;;;;15.82;11.15;;;;;;;9.63;94.29;101459.97;4992789;28;20026;-66
2021/10/30 05:00:42;;;;;;;16.75;11.98;;;;;;;9.59;94.75;101453.75;4992851;28;20037;-66
2021/10/30 05:03:07;;;;;;;15.13;11.55;;;;;;;9.54;94.91;101455.16;4992592;28;20034;-66
2021/10/30 05:05:33;;;;;;;16.15;11.70;;;;;;;9.50;94.77;101455.81;4992590;28;20547;-66
2021/10/30 05:07:58;;;;;;;17.52;11.30;;;;;;;8.95;95.02;101368.47;4991469;28;20030;-67
2021/10/30 05:10:23;;;;;;;16.40;10.85;;;;;;;9.35;95.20;101456.69;4992054;28;20160;-66
2021/10/30 05:12:49;;;;;;;16.02;11.25;;;;;;;8.46;95.39;101310.78;4990341;28;20050;-68
2021/10/30 05:15:14;;;;;;;14.95;11.35;;;;;;;8.87;95.83;101389.53;4992299;28;20097;-66
2021/10/30 05:17:41;;;;;;;19.58;12.07;;;;;;;9.15;96.58;101468.41;4992712;28;20088;-66
2021/10/30 05:20:07;;;;;;;18.35;11.60;;;;;;;9.01;97.46;101467.59;4992199;28;20030;-66
2021/10/30 05:22:32;;;;;;;16.05;11.52;;;;;;;8.41;97.45;101373.88;4992106;28;20038;-64
2021/10/30 05:24:58;;;;;;;16.85;12.00;;;;;;;8.84;98.14;101466.59;4992423;28;20496;-66
2021/10/30 05:27:23;;;;;;;16.95;11.18;;;;;;;8.82;97.68;101465.63;4992228;28;20054;-66
2021/10/30 05:29:49;;;;;;;26.17;17.38;;;;;;;8.69;98.45;101440.81;4992374;28;20054;-64
2021/10/30 05:32:15;;;;;;;25.55;16.83;;;;;;;8.81;98.42;101457.78;4973769;28;20484;-66
2021/10/30 05:34:40;;;;;;;26.85;16.63;;;;;;;8.86;98.71;101465.00;4992245;28;20069;-67
2021/10/30 05:37:06;;;;;;;19.00;13.95;;;;;;;8.63;99.66;101462.72;4992083;28;20026;-66
2021/10/30 05:39:32;;;;;;;20.60;13.20;;;;;;;8.71;100.00;101477.84;4992236;28;20031;-67
2021/10/30 05:41:57;;;;;;;17.02;13.15;;;;;;;8.52;99.57;101419.22;4992015;28;20024;-66
2021/10/30 05:44:23;;;;;;;24.58;13.27;;;;;;;8.88;99.05;101470.25;4992270;28;20049;-66
2021/10/30 05:46:48;;;;;;;22.15;13.93;;;;;;;8.97;98.73;101459.59;4992229;28;20499;-65
2021/10/30 05:49:15;;;;;;;19.55;13.52;;;;;;;8.81;98.68;101443.25;4991954;28;20408;-66
2021/10/30 05:51:40;;;;;;;18.70;13.07;;;;;;;8.84;99.02;101440.84;4991942;28;20103;-66
2021/10/30 05:54:06;;;;;;;23.52;14.05;;;;;;;8.99;99.29;101464.03;4991871;28;20461;-66
2021/10/30 05:56:32;;;;;;;20.08;14.48;;;;;;;9.01;99.14;101458.97;4992124;28;20113;-66
2021/10/30 05:58:58;;;;;;;22.58;15.38;;;;;;;8.38;99.94;101368.56;4992132;28;20029;-65
2021/10/30 06:01:23;;;;;;;25.23;17.17;;;;;;;8.96;100.00;101468.13;4991972;28;20424;-66
2021/10/30 06:03:49;;;;;;;25.90;16.35;;;;;;;8.97;100.00;101475.06;4991883;28;20470;-67
2021/10/30 06:06:14;;;;;;;25.90;16.00;;;;;;;8.99;100.00;101463.16;4991881;28;20109;-67
2021/10/30 06:08:40;;;;;;;20.83;14.18;;;;;;;9.10;100.00;101468.94;4991589;28;20033;-66
2021/10/30 06:11:05;;;;;;;25.38;14.50;;;;;;;9.16;100.00;101466.72;4992076;28;20433;-66
2021/10/30 06:13:31;;;;;;;18.95;13.85;;;;;;;9.26;99.68;101473.31;4991790;28;20555;-67
2021/10/30 06:15:57;;;;;;;20.20;13.52;;;;;;;8.77;99.39;101374.31;4991455;28;20408;-65
2021/10/30 06:18:22;;;;;;;18.73;13.30;;;;;;;9.30;98.68;101452.97;4987344;28;20033;-66
2021/10/30 06:20:48;;;;;;;16.75;12.98;;;;;;;9.46;97.96;101493.41;4991723;28;20033;-66
2021/10/30 06:23:15;;;;;;;18.77;12.13;;;;;;;8.92;97.63;101391.50;4991532;28;20061;-66
2021/10/30 06:25:42;;;;;;;15.10;12.00;;;;;;;8.92;97.29;101389.78;4991736;28;20022;-65
2021/10/30 06:28:07;;;;;;;15.18;12.95;;;;;;;9.52;97.05;101488.59;4991470;28;20051;-66
2021/10/30 06:30:33;;;;;;;18.98;12.38;;;;;;;9.60;96.75;101483.88;4991720;28;20038;-67
2021/10/30 06:32:59;;;;;;;21.35;11.98;;;;;;;9.80;95.76;101491.88;4991448;28;20069;-66
2021/10/30 06:35:24;;;;;;;16.13;11.63;;;;;;;9.90;95.49;101490.69;4985815;28;20030;-66
2021/10/30 06:37:49;;;;;;;24.30;17.35;;;;;;;10.01;95.37;101487.91;4986191;28;20022;-67
2021/10/30 06:40:15;;;;;;;46.60;34.45;;;;;;;10.01;95.96;101466.38;4991117;28;20022;-66
2021/10/30 06:42:42;;;;;;;22.00;16.45;;;;;;;10.15;93.72;101490.38;4982193;28;20096;-66
2021/10/30 06:45:08;;;;;;;22.60;15.68;;;;;;;10.08;94.00;101481.41;4993418;28;20023;-66
2021/10/30 06:47:33;;;;;;;15.23;11.43;;;;;;;10.05;93.99;101496.69;4994493;28;20089;-65
2021/10/30 06:50:03;;;;;;;17.15;10.70;;;;;;;10.20;93.29;101502.72;4994261;28;20039;-63
2021/10/30 06:52:36;;;;;;;13.38;10.73;;;;;;;10.23;93.04;101493.34;4994205;28;20030;-67
2021/10/30 06:55:07;;;;;;;34.78;24.33;;;;;;;10.26;92.77;101509.91;4989537;28;20049;-66
2021/10/30 06:57:33;;;;;;;42.72;31.67;;;;;;;10.05;92.67;101470.91;4993057;28;20030;-66
2021/10/30 07:00:00;;;;;;;33.42;23.10;;;;;;;10.16;93.21;101502.47;4994291;28;20038;-66
2021/10/30 07:02:25;;;;;;;15.07;10.75;;;;;;;10.12;93.20;101498.81;4994131;28;20030;-66
2021/10/30 07:04:51;;;;;;;13.50;9.70;;;;;;;10.07;93.23;101507.09;4984921;28;20102;-67
2021/10/30 07:07:16;;;;;;;17.45;10.80;;;;;;;9.84;94.32;101463.78;4993540;28;20116;-67
2021/10/30 07:09:41;;;;;;;13.15;10.30;;;;;;;9.98;94.63;101500.66;4994433;28;20026;-66
2021/10/30 07:12:07;;;;;;;21.88;15.48;;;;;;;9.50;95.54;101405.13;4994260;28;20030;-66
2021/10/30 07:14:32;;;;;;;15.23;10.68;;;;;;;10.02;95.06;101489.69;4994083;28;20035;-64
2021/10/30 07:16:58;;;;;;;16.35;11.30;;;;;;;9.62;94.62;101419.50;4994074;28;20437;-65
2021/10/30 07:19:24;;;;;;;15.07;10.40;;;;;;;10.07;94.13;101501.94;4993913;28;20408;-66
2021/10/30 07:21:49;;;;;;;20.60;14.57;;;;;;;10.12;95.11;101500.50;4994212;28;20054;-66
2021/10/30 07:24:15;;;;;;;15.30;11.45;;;;;;;10.23;94.62;101498.53;4993929;28;20034;-63
2021/10/30 07:26:40;;;;;;;12.38;10.02;;;;;;;10.44;94.01;101496.25;4993796;28;20092;-66
2021/10/30 07:29:06;;;;;;;39.67;23.17;;;;;;;10.47;93.16;101497.31;4994204;28;20046;-66
2021/10/30 07:31:32;;;;;;;26.00;15.60;;;;;;;10.47;95.13;101483.53;4993733;28;20125;-65
2021/10/30 07:33:57;;;;;;;15.23;11.40;;;;;;;10.43;94.55;101482.47;4993289;28;20026;-66
2021/10/30 07:36:23;;;;;;;13.43;10.00;;;;;;;10.37;94.70;101474.41;4991501;28;20042;-67
2021/10/30 07:38:50;;;;;;;13.65;9.73;;;;;;;10.69;94.91;101462.28;4988085;28;20019;-66
2021/10/30 07:41:16;;;;;;;21.08;13.82;;;;;;;10.97;92.56;101481.81;4993478;28;20412;-66
2021/10/30 07:43:41;;;;;;;17.42;12.93;;;;;;;11.11;92.53;101478.22;4993275;28;20121;-65
2021/10/30 07:46:07;;;;;;;15.23;9.35;;;;;;;11.16;91.50;101479.38;4993606;28;20098;-67
2021/10/30 07:48:32;;;;;;;12.40;8.55;;;;;;;11.30;92.33;101482.66;4989003;28;20027;-65
2021/10/30 07:50:58;;;;;;;12.40;9.25;;;;;;;11.49;92.05;101468.06;4975208;28;20518;-66
2021/10/30 07:53:23;;;;;;;11.82;9.52;;;;;;;11.69;91.88;101455.19;4988695;28;20065;-66
2021/10/30 07:55:49;;;;;;;12.63;8.52;;;;;;;11.92;91.26;101457.19;4988848;28;20030;-69
2021/10/30 07:58:15;;;;;;;11.55;8.20;;;;;;;11.59;89.23;101369.41;4993369;28;20073;-67
2021/10/30 08:00:40;;;;;;;10.20;7.00;;;;;;;12.18;88.51;101447.19;4993183;28;20393;-66
2021/10/30 08:03:06;;;;;;;20.30;13.68;;;;;;;12.18;87.50;101439.44;4993142;28;20068;-66
2021/10/30 08:05:31;;;;;;;12.68;6.93;;;;;;;12.01;87.24;101420.53;4992971;28;20054;-66
2021/10/30 08:07:57;;;;;;;13.00;8.68;;;;;;;12.14;87.73;101441.00;4993299;28;20033;-65
2021/10/30 08:10:26;;;;;;;11.27;6.32;;;;;;;12.21;86.60;101438.69;4993193;28;20404;-66
2021/10/30 08:12:53;;;;;;;13.18;7.80;;;;;;;12.17;87.77;101449.72;4990607;28;20018;-66
2021/10/30 08:15:18;;;;;;;16.58;7.95;;;;;;;12.11;87.29;101455.50;4992754;28;20099;-66
2021/10/30 08:17:44;;;;;;;13.13;8.68;;;;;;;12.10;88.39;101443.34;4992537;28;20489;-66
2021/10/30 08:20:10;;;;;;;12.77;8.00;;;;;;;12.24;87.56;101449.19;4990460;28;20026;-66
2021/10/30 08:22:35;;;;;;;11.02;7.22;;;;;;;12.41;87.31;101444.75;4992596;28;20030;-66
2021/10/30 08:25:01;;;;;;;13.95;8.20;;;;;;;12.44;86.73;101435.44;4992651;28;20169;-67
2021/10/30 08:27:26;;;;;;;10.10;6.95;;;;;;;12.57;87.06;101435.97;4988584;28;20038;-66
2021/10/30 08:29:52;;;;;;;11.85;7.00;;;;;;;12.60;86.20;101439.59;4992500;28;20046;-67
2021/10/30 08:32:17;;;;;;;8.23;5.68;;;;;;;12.30;84.71;101364.03;4992547;28;20109;-66
2021/10/30 08:34:42;;;;;;;10.00;6.18;;;;;;;12.75;85.14;101435.91;4992683;28;20099;-66
2021/10/30 08:37:10;;;;;;;10.90;6.70;;;;;;;12.83;83.94;101437.13;4992761;28;20112;-66
2021/10/30 08:39:35;;;;;;;9.95;7.47;;;;;;;12.81;85.00;101414.56;4992429;28;20034;-66
2021/10/30 08:42:01;;;;;;;13.15;6.82;;;;;;;12.54;84.37;101376.28;4993140;28;20025;-66
2021/10/30 08:44:26;;;;;;;11.43;6.82;;;;;;;12.93;83.53;101418.56;4992565;28;20036;-66
2021/10/30 08:46:53;;;;;;;8.75;5.55;;;;;;;12.97;83.11;101429.06;4992480;28;20022;-66
2021/10/30 08:49:20;;;;;;;10.43;6.30;;;;;;;12.87;83.60;101409.63;4992400;28;20061;-66
2021/10/30 08:51:46;;;;;;;11.98;6.70;;;;;;;13.01;82.52;101424.06;4992664;28;20029;-66
2021/10/30 08:54:12;;;;;;;10.32;6.38;;;;;;;12.98;84.10;101423.06;4992409;28;20061;-65
2021/10/30 08:56:39;;;;;;;11.57;6.32;;;;;;;12.92;83.39;101429.75;4990634;28;20030;-66
2021/10/30 08:59:08;;;;;;;9.43;5.95;;;;;;;12.91;83.44;101427.97;4992153;28;20485;-66
2021/10/30 09:01:48;;;;;;;12.98;6.32;;;;;;;12.84;84.38;101417.28;4992217;28;20069;-67
2021/10/30 09:04:16;;;;;;;11.15;7.10;;;;;;;12.93;85.19;101422.84;4991629;28;20041;-66
2021/10/30 09:07:04;;;;;;;10.23;6.40;;;;;;;12.85;84.27;101408.69;4989258;28;20026;-67
2021/10/30 09:09:31;;;;;;;11.95;7.25;;;;;;;12.61;84.24;101367.94;4991069;28;20022;-67
2021/10/30 09:11:59;;;;;;;11.13;7.50;;;;;;;12.96;82.85;101420.41;4991871;28;20061;-67
2021/10/30 09:14:31;;;;;;;14.18;6.68;;;;;;;12.95;83.12;101416.91;4991983;28;20436;-67
2021/10/30 09:17:10;;;;;;;12.80;8.00;;;;;;;13.04;83.69;101411.22;4992223;28;20022;-66
2021/10/30 09:19:36;;;;;;;;;;;;;;;13.10;84.47;101410.63;4992094;28;20389;-66
2021/10/30 09:22:03;;;;;;;10.65;6.55;;;;;;;13.16;84.21;101410.88;4991983;28;19913;-66
2021/10/30 09:24:29;;;;;;;11.20;7.60;;;;;;;13.29;83.57;101407.06;4991660;28;20030;-65
2021/10/30 09:26:54;;;;;;;11.82;7.30;;;;;;;13.37;82.55;101397.00;4991869;28;20032;-65
2021/10/30 09:29:20;;;;;;;12.80;8.07;;;;;;;13.51;83.77;101397.59;4991722;28;20078;-67
2021/10/30 09:31:45;;;;;;;12.93;7.05;;;;;;;13.54;82.44;101392.53;4991808;28;20027;-67
2021/10/30 09:34:12;;;;;;;13.65;7.80;;;;;;;13.54;83.12;101390.81;4992390;28;20022;-66
2021/10/30 09:36:41;;;;;;;10.63;7.78;;;;;;;13.41;82.78;101360.03;4992093;28;20109;-69
2021/10/30 09:39:09;;;;;;;12.55;7.30;;;;;;;13.52;82.52;101381.19;4991337;28;20089;-66
2021/10/30 09:41:43;;;;;;;13.80;8.63;;;;;;;13.53;82.62;101385.56;4984549;28;20242;-67
2021/10/30 09:44:17;;;;;;;16.30;8.35;;;;;;;13.52;83.66;101366.53;4990861;28;20061;-67
2021/10/30 09:46:46;;;;;;;10.27;7.38;;;;;;;13.61;81.86;101368.59;4991121;28;20019;-66
2021/10/30 09:49:16;;;;;;;14.80;7.83;;;;;;;13.86;82.47;101370.41;4990868;28;20405;-67
2021/10/30 09:51:47;;;;;;;11.77;7.65;;;;;;;14.13;80.86;101363.59;4972931;28;20301;-64
2021/10/30 09:54:30;;;;;;;11.18;7.60;;;;;;;14.12;79.81;101362.72;4991112;28;20026;-67
2021/10/30 09:56:55;;;;;;;14.68;7.38;;;;;;;14.07;79.17;101353.88;4989826;28;20030;-66
2021/10/30 09:59:21;;;;;;;11.32;8.02;;;;;;;13.97;78.45;101356.94;4990871;28;20033;-65
2021/10/30 10:01:49;;;;;;;11.52;8.50;;;;;;;14.01;78.69;101351.06;4990939;28;20073;-65
2021/10/30 10:04:17;;;;;;;14.27;8.18;;;;;;;14.14;77.69;101344.59;4990676;28;20045;-68
2021/10/30 10:06:49;;;;;;;13.87;7.40;;;;;;;13.70;78.59;101265.13;4970537;28;20034;-66
2021/10/30 10:09:19;;;;;;;15.57;7.45;;;;;;;13.95;78.77;101328.34;4988446;28;20482;-68
2021/10/30 10:11:51;;;;;;;10.05;7.63;;;;;;;14.09;80.04;101336.63;4991617;28;20109;-67
2021/10/30 10:14:19;;;;;;;10.73;7.05;;;;;;;14.05;79.15;101333.03;4991607;28;20554;-67
2021/10/30 10:16:51;;;;;;;15.23;7.95;;;;;;;13.53;79.13;101256.75;4991663;28;20428;-66
2021/10/30 10:19:18;;;;;;;14.68;7.63;;;;;;;14.01;76.85;101331.16;4992246;28;20042;-66
2021/10/30 10:21:45;;;;;;;13.52;7.65;;;;;;;14.10;76.55;101333.22;4992564;28;20036;-70
2021/10/30 10:24:18;;;;;;;23.70;9.68;;;;;;;14.21;78.05;101326.69;4995480;28;20077;-65
2021/10/30 10:26:54;;;;;;;14.98;7.85;;;;;;;14.23;77.90;101326.72;4993098;28;20069;-65
2021/10/30 10:29:58;;;;;;;24.60;9.07;;;;;;;14.23;77.52;101321.53;4960719;28;20073;-71
2021/10/30 10:32:26;;;;;;;22.20;9.05;;;;;;;14.24;77.59;101318.13;4993635;28;20047;-64
2021/10/30 10:35:02;;;;;;;39.13;13.05;;;;;;;14.28;77.56;101311.31;4995037;28;20031;-67
2021/10/30 10:37:27;;;;;;;27.65;10.85;;;;;;;14.31;77.44;101316.66;4994870;28;20034;-67
2021/10/30 10:39:57;;;;;;;14.57;7.30;;;;;;;13.70;77.15;101225.34;4992015;28;20025;-67
2021/10/30 10:42:34;;;;;;;13.07;7.20;;;;;;;14.24;76.81;101312.94;4992573;28;20515;-67
2021/10/30 10:45:07;;;;;;;10.07;7.70;;;;;;;14.27;76.90;101318.25;4994460;28;20057;-67
2021/10/30 10:47:35;;;;;;;11.38;7.28;;;;;;;14.32;77.51;101306.31;4984906;28;20058;-68
2021/10/30 10:50:23;;;;;;;12.07;7.55;;;;;;;14.27;78.33;101310.44;4985600;28;20041;-66
2021/10/30 10:53:01;;;;;;;17.25;8.20;;;;;;;14.18;78.51;101297.13;4956702;28;20061;-68
2021/10/30 10:55:32;;;;;;;16.48;7.82;;;;;;;14.25;77.43;101296.50;4987006;28;20417;-64
2021/10/30 10:58:06;;;;;;;16.92;9.00;;;;;;;14.26;77.41;101303.50;4992295;28;20412;-69
2021/10/30 11:00:32;;;;;;;16.80;8.00;;;;;;;14.22;78.93;101309.41;4992197;28;20089;-68
2021/10/30 11:02:59;;;;;;;13.70;8.00;;;;;;;14.21;78.49;101305.03;4993856;28;20042;-68
2021/10/30 11:05:27;;;;;;;12.57;7.82;;;;;;;13.74;78.84;101224.63;4993669;28;20031;-66
2021/10/30 11:07:52;;;;;;;11.13;8.23;;;;;;;14.21;78.67;101299.84;4992402;28;20058;-66
2021/10/30 11:10:20;;;;;;;12.57;7.40;;;;;;;14.22;78.19;101288.63;4994327;28;20397;-66
2021/10/30 11:12:58;;;;;;;11.73;8.50;;;;;;;13.81;78.21;101205.84;4992112;28;20077;-67
2021/10/30 11:15:25;;;;;;;15.73;8.07;;;;;;;14.26;79.47;101279.25;4991788;28;20590;-67